sensor_id;sensor_type;location;lat;lon;timestamp;P1;durP1;ratioP1;P2;durP2;ratioP2
11414;SDS011;5763;42.714;23.244;2023-01-01T00:01:13;32.80;;;23.08;;
11414;SDS011;5763;42.714;23.244;2023-01-01T00:03:40;31.23;;;22.10;;
11414;SDS011;5763;42.714;23.244;2023-01-01T00:06:09;28.83;;;20.42;;
11414;SDS011;5763;42.714;23.244;2023-01-01T00:08:37;32.42;;;22.30;;
11414;SDS011;5763;42.714;23.244;2023-01-01T00:11:05;36.70;;;26.48;;
11414;SDS011;5763;42.714;23.244;2023-01-01T00:13:33;46.60;;;31.23;;
11414;SDS011;5763;42.714;23.244;2023-01-01T00:16:04;40.72;;;28.30;;
11414;SDS011;5763;42.714;23.244;2023-01-01T00:18:32;41.10;;;29.85;;
11414;SDS011;5763;42.714;23.244;2023-01-01T00:21:02;36.33;;;24.63;;
11414;SDS011;5763;42.714;23.244;2023-01-01T00:23:31;45.17;;;31.42;;
11414;SDS011;5763;42.714;23.244;2023-01-01T00:25:59;42.45;;;29.77;;
11414;SDS011;5763;42.714;23.244;2023-01-01T00:28:26;43.88;;;30.05;;
11414;SDS011;5763;42.714;23.244;2023-01-01T00:30:53;38.58;;;28.23;;
11414;SDS011;5763;42.714;23.244;2023-01-01T00:33:20;33.30;;;25.17;;
11414;SDS011;5763;42.714;23.244;2023-01-01T00:35:46;35.17;;;24.30;;
11414;SDS011;5763;42.714;23.244;2023-01-01T00:38:13;31.90;;;22.13;;
11414;SDS011;5763;42.714;23.244;2023-01-01T00:40:42;32.75;;;23.23;;
11414;SDS011;5763;42.714;23.244;2023-01-01T00:43:08;28.88;;;21.30;;
11414;SDS011;5763;42.714;23.244;2023-01-01T00:45:35;24.50;;;18.25;;
11414;SDS011;5763;42.714;23.244;2023-01-01T00:48:03;24.80;;;17.58;;
11414;SDS011;5763;42.714;23.244;2023-01-01T00:50:30;24.40;;;16.23;;
11414;SDS011;5763;42.714;23.244;2023-01-01T00:52:57;21.48;;;16.15;;
11414;SDS011;5763;42.714;23.244;2023-01-01T00:55:23;21.67;;;14.95;;
11414;SDS011;5763;42.714;23.244;2023-01-01T00:57:52;21.77;;;15.57;;
11414;SDS011;5763;42.714;23.244;2023-01-01T01:00:18;22.25;;;15.70;;
11414;SDS011;5763;42.714;23.244;2023-01-01T01:02:45;18.17;;;14.32;;
11414;SDS011;5763;42.714;23.244;2023-01-01T01:05:12;23.70;;;16.35;;
11414;SDS011;5763;42.714;23.244;2023-01-01T01:07:39;22.90;;;16.08;;
11414;SDS011;5763;42.714;23.244;2023-01-01T01:10:07;25.17;;;18.33;;
11414;SDS011;5763;42.714;23.244;2023-01-01T01:12:36;26.50;;;18.50;;
11414;SDS011;5763;42.714;23.244;2023-01-01T01:15:05;23.20;;;17.10;;
11414;SDS011;5763;42.714;23.244;2023-01-01T01:17:33;23.17;;;17.30;;
11414;SDS011;5763;42.714;23.244;2023-01-01T01:20:00;25.60;;;18.60;;
11414;SDS011;5763;42.714;23.244;2023-01-01T01:22:27;28.33;;;20.33;;
11414;SDS011;5763;42.714;23.244;2023-01-01T01:24:54;25.08;;;18.17;;
11414;SDS011;5763;42.714;23.244;2023-01-01T01:27:21;35.15;;;23.08;;
11414;SDS011;5763;42.714;23.244;2023-01-01T01:29:48;45.03;;;30.85;;
11414;SDS011;5763;42.714;23.244;2023-01-01T01:32:16;36.00;;;26.73;;
11414;SDS011;5763;42.714;23.244;2023-01-01T01:34:43;40.67;;;27.73;;
11414;SDS011;5763;42.714;23.244;2023-01-01T01:37:09;32.75;;;22.15;;
11414;SDS011;5763;42.714;23.244;2023-01-01T01:39:36;29.92;;;21.00;;
11414;SDS011;5763;42.714;23.244;2023-01-01T01:42:03;29.25;;;22.45;;
11414;SDS011;5763;42.714;23.244;2023-01-01T01:44:50;34.97;;;23.50;;
11414;SDS011;5763;42.714;23.244;2023-01-01T01:47:27;33.38;;;24.10;;
11414;SDS011;5763;42.714;23.244;2023-01-01T01:49:58;39.58;;;27.70;;
11414;SDS011;5763;42.714;23.244;2023-01-01T01:52:29;40.08;;;26.05;;
11414;SDS011;5763;42.714;23.244;2023-01-01T01:54:58;39.45;;;25.30;;
11414;SDS011;5763;42.714;23.244;2023-01-01T01:57:27;40.05;;;26.90;;
11414;SDS011;5763;42.714;23.244;2023-01-01T01:59:55;36.97;;;26.15;;
11414;SDS011;5763;42.714;23.244;2023-01-01T02:02:26;36.33;;;26.05;;
11414;SDS011;5763;42.714;23.244;2023-01-01T02:04:59;38.00;;;25.60;;
11414;SDS011;5763;42.714;23.244;2023-01-01T02:07:26;38.70;;;26.35;;
11414;SDS011;5763;42.714;23.244;2023-01-01T02:09:56;36.08;;;26.30;;
11414;SDS011;5763;42.714;23.244;2023-01-01T02:12:23;40.05;;;26.23;;
11414;SDS011;5763;42.714;23.244;2023-01-01T02:14:52;38.75;;;27.23;;
11414;SDS011;5763;42.714;23.244;2023-01-01T02:17:20;42.88;;;30.42;;
11414;SDS011;5763;42.714;23.244;2023-01-01T02:19:57;45.25;;;30.65;;
11414;SDS011;5763;42.714;23.244;2023-01-01T02:22:50;41.05;;;27.40;;
11414;SDS011;5763;42.714;23.244;2023-01-01T02:25:29;42.25;;;28.92;;
11414;SDS011;5763;42.714;23.244;2023-01-01T02:28:07;33.85;;;24.60;;
11414;SDS011;5763;42.714;23.244;2023-01-01T02:30:43;32.53;;;21.45;;
11414;SDS011;5763;42.714;23.244;2023-01-01T02:33:12;29.10;;;18.10;;
11414;SDS011;5763;42.714;23.244;2023-01-01T02:35:44;28.77;;;19.52;;
11414;SDS011;5763;42.714;23.244;2023-01-01T02:38:17;29.23;;;19.48;;
11414;SDS011;5763;42.714;23.244;2023-01-01T02:40:55;27.00;;;18.80;;
11414;SDS011;5763;42.714;23.244;2023-01-01T02:43:25;26.58;;;17.45;;
11414;SDS011;5763;42.714;23.244;2023-01-01T02:45:53;22.70;;;16.55;;
11414;SDS011;5763;42.714;23.244;2023-01-01T02:48:34;28.27;;;16.27;;
11414;SDS011;5763;42.714;23.244;2023-01-01T02:51:10;24.63;;;15.30;;
11414;SDS011;5763;42.714;23.244;2023-01-01T02:53:44;22.33;;;15.52;;
11414;SDS011;5763;42.714;23.244;2023-01-01T02:56:18;24.75;;;16.77;;
11414;SDS011;5763;42.714;23.244;2023-01-01T02:58:55;26.77;;;17.67;;
11414;SDS011;5763;42.714;23.244;2023-01-01T03:01:49;26.90;;;16.65;;
11414;SDS011;5763;42.714;23.244;2023-01-01T03:04:23;24.88;;;16.80;;
11414;SDS011;5763;42.714;23.244;2023-01-01T03:07:00;24.05;;;17.20;;
11414;SDS011;5763;42.714;23.244;2023-01-01T03:09:38;27.63;;;18.85;;
11414;SDS011;5763;42.714;23.244;2023-01-01T03:12:14;29.35;;;19.90;;
11414;SDS011;5763;42.714;23.244;2023-01-01T03:14:49;31.15;;;20.48;;
11414;SDS011;5763;42.714;23.244;2023-01-01T03:17:25;30.23;;;19.73;;
11414;SDS011;5763;42.714;23.244;2023-01-01T03:19:58;29.63;;;20.60;;
11414;SDS011;5763;42.714;23.244;2023-01-01T03:22:30;29.67;;;20.90;;
11414;SDS011;5763;42.714;23.244;2023-01-01T03:25:02;31.15;;;20.60;;
11414;SDS011;5763;42.714;23.244;2023-01-01T03:27:33;34.08;;;22.05;;
11414;SDS011;5763;42.714;23.244;2023-01-01T03:30:05;32.67;;;22.27;;
11414;SDS011;5763;42.714;23.244;2023-01-01T03:32:37;31.25;;;21.17;;
11414;SDS011;5763;42.714;23.244;2023-01-01T03:35:29;33.33;;;22.40;;
11414;SDS011;5763;42.714;23.244;2023-01-01T03:38:00;34.15;;;23.88;;
11414;SDS011;5763;42.714;23.244;2023-01-01T03:40:31;37.58;;;25.00;;
11414;SDS011;5763;42.714;23.244;2023-01-01T03:43:02;36.13;;;24.98;;
11414;SDS011;5763;42.714;23.244;2023-01-01T03:45:34;38.88;;;26.38;;
11414;SDS011;5763;42.714;23.244;2023-01-01T03:48:05;34.25;;;24.48;;
11414;SDS011;5763;42.714;23.244;2023-01-01T03:50:34;37.90;;;24.38;;
11414;SDS011;5763;42.714;23.244;2023-01-01T03:53:13;33.85;;;22.60;;
11414;SDS011;5763;42.714;23.244;2023-01-01T03:55:51;32.65;;;23.83;;
11414;SDS011;5763;42.714;23.244;2023-01-01T03:58:27;44.47;;;28.17;;
11414;SDS011;5763;42.714;23.244;2023-01-01T04:01:01;40.42;;;26.70;;
11414;SDS011;5763;42.714;23.244;2023-01-01T04:03:36;43.00;;;27.73;;
11414;SDS011;5763;42.714;23.244;2023-01-01T04:06:04;39.58;;;28.67;;
11414;SDS011;5763;42.714;23.244;2023-01-01T04:08:31;40.95;;;28.08;;
11414;SDS011;5763;42.714;23.244;2023-01-01T04:11:00;44.38;;;29.05;;
11414;SDS011;5763;42.714;23.244;2023-01-01T04:13:53;41.38;;;29.05;;
11414;SDS011;5763;42.714;23.244;2023-01-01T04:16:19;54.92;;;36.47;;
11414;SDS011;5763;42.714;23.244;2023-01-01T04:18:48;42.88;;;28.67;;
11414;SDS011;5763;42.714;23.244;2023-01-01T04:21:15;48.35;;;33.60;;
11414;SDS011;5763;42.714;23.244;2023-01-01T04:23:42;55.03;;;37.28;;
11414;SDS011;5763;42.714;23.244;2023-01-01T04:26:10;54.03;;;35.08;;
11414;SDS011;5763;42.714;23.244;2023-01-01T04:28:38;46.92;;;33.17;;
11414;SDS011;5763;42.714;23.244;2023-01-01T04:31:05;53.65;;;35.58;;
11414;SDS011;5763;42.714;23.244;2023-01-01T04:33:32;65.90;;;42.53;;
11414;SDS011;5763;42.714;23.244;2023-01-01T04:36:02;57.45;;;38.50;;
11414;SDS011;5763;42.714;23.244;2023-01-01T04:38:31;60.72;;;39.40;;
11414;SDS011;5763;42.714;23.244;2023-01-01T04:40:59;61.72;;;40.88;;
11414;SDS011;5763;42.714;23.244;2023-01-01T04:43:26;63.55;;;39.42;;
11414;SDS011;5763;42.714;23.244;2023-01-01T04:45:56;57.40;;;40.35;;
11414;SDS011;5763;42.714;23.244;2023-01-01T04:48:23;61.95;;;42.22;;
11414;SDS011;5763;42.714;23.244;2023-01-01T04:50:54;62.40;;;41.92;;
11414;SDS011;5763;42.714;23.244;2023-01-01T04:53:23;53.22;;;38.42;;
11414;SDS011;5763;42.714;23.244;2023-01-01T04:55:50;60.17;;;38.78;;
11414;SDS011;5763;42.714;23.244;2023-01-01T04:58:17;55.78;;;36.78;;
11414;SDS011;5763;42.714;23.244;2023-01-01T05:00:46;53.53;;;36.50;;
11414;SDS011;5763;42.714;23.244;2023-01-01T05:03:14;50.88;;;33.30;;
11414;SDS011;5763;42.714;23.244;2023-01-01T05:05:41;55.53;;;36.25;;
11414;SDS011;5763;42.714;23.244;2023-01-01T05:08:08;55.00;;;36.10;;
11414;SDS011;5763;42.714;23.244;2023-01-01T05:10:36;56.80;;;34.25;;
11414;SDS011;5763;42.714;23.244;2023-01-01T05:13:05;43.20;;;30.10;;
11414;SDS011;5763;42.714;23.244;2023-01-01T05:15:34;41.45;;;25.20;;
11414;SDS011;5763;42.714;23.244;2023-01-01T05:18:01;36.40;;;24.35;;
11414;SDS011;5763;42.714;23.244;2023-01-01T05:20:28;32.45;;;23.48;;
11414;SDS011;5763;42.714;23.244;2023-01-01T05:22:54;31.77;;;20.58;;
11414;SDS011;5763;42.714;23.244;2023-01-01T05:25:21;28.17;;;19.65;;
11414;SDS011;5763;42.714;23.244;2023-01-01T05:27:49;31.75;;;20.02;;
11414;SDS011;5763;42.714;23.244;2023-01-01T05:30:16;28.45;;;18.70;;
11414;SDS011;5763;42.714;23.244;2023-01-01T05:32:43;29.27;;;19.30;;
11414;SDS011;5763;42.714;23.244;2023-01-01T05:35:10;26.98;;;18.02;;
11414;SDS011;5763;42.714;23.244;2023-01-01T05:37:37;25.27;;;17.55;;
11414;SDS011;5763;42.714;23.244;2023-01-01T05:40:04;28.05;;;18.60;;
11414;SDS011;5763;42.714;23.244;2023-01-01T05:42:31;30.00;;;19.80;;
11414;SDS011;5763;42.714;23.244;2023-01-01T05:44:59;28.00;;;18.38;;
11414;SDS011;5763;42.714;23.244;2023-01-01T05:47:26;28.42;;;19.83;;
11414;SDS011;5763;42.714;23.244;2023-01-01T05:49:53;29.30;;;20.08;;
11414;SDS011;5763;42.714;23.244;2023-01-01T05:52:20;30.52;;;20.13;;
11414;SDS011;5763;42.714;23.244;2023-01-01T05:54:47;30.63;;;21.00;;
11414;SDS011;5763;42.714;23.244;2023-01-01T05:57:14;34.42;;;21.65;;
11414;SDS011;5763;42.714;23.244;2023-01-01T05:59:41;34.25;;;21.58;;
11414;SDS011;5763;42.714;23.244;2023-01-01T06:02:09;33.83;;;22.25;;
11414;SDS011;5763;42.714;23.244;2023-01-01T06:04:36;40.42;;;25.27;;
11414;SDS011;5763;42.714;23.244;2023-01-01T06:07:02;43.03;;;27.48;;
11414;SDS011;5763;42.714;23.244;2023-01-01T06:09:29;51.80;;;34.00;;
11414;SDS011;5763;42.714;23.244;2023-01-01T06:11:56;53.55;;;35.50;;
11414;SDS011;5763;42.714;23.244;2023-01-01T06:14:23;57.35;;;37.25;;
11414;SDS011;5763;42.714;23.244;2023-01-01T06:16:49;56.22;;;37.40;;
11414;SDS011;5763;42.714;23.244;2023-01-01T06:19:17;55.08;;;35.33;;
11414;SDS011;5763;42.714;23.244;2023-01-01T06:21:44;59.78;;;38.40;;
11414;SDS011;5763;42.714;23.244;2023-01-01T06:24:11;61.75;;;41.30;;
11414;SDS011;5763;42.714;23.244;2023-01-01T06:26:38;64.55;;;44.28;;
11414;SDS011;5763;42.714;23.244;2023-01-01T06:29:05;64.15;;;43.17;;
11414;SDS011;5763;42.714;23.244;2023-01-01T06:31:32;67.10;;;43.97;;
11414;SDS011;5763;42.714;23.244;2023-01-01T06:33:58;68.72;;;43.10;;
11414;SDS011;5763;42.714;23.244;2023-01-01T06:36:26;65.45;;;41.70;;
11414;SDS011;5763;42.714;23.244;2023-01-01T06:38:54;62.53;;;41.03;;
11414;SDS011;5763;42.714;23.244;2023-01-01T06:41:23;63.35;;;40.95;;
11414;SDS011;5763;42.714;23.244;2023-01-01T06:43:53;62.90;;;42.15;;
11414;SDS011;5763;42.714;23.244;2023-01-01T06:46:21;62.33;;;41.97;;
11414;SDS011;5763;42.714;23.244;2023-01-01T06:48:51;64.10;;;41.90;;
11414;SDS011;5763;42.714;23.244;2023-01-01T06:51:20;67.75;;;43.33;;
11414;SDS011;5763;42.714;23.244;2023-01-01T06:53:49;60.75;;;41.38;;
11414;SDS011;5763;42.714;23.244;2023-01-01T06:56:17;62.05;;;41.97;;
11414;SDS011;5763;42.714;23.244;2023-01-01T06:58:44;66.55;;;41.00;;
11414;SDS011;5763;42.714;23.244;2023-01-01T07:01:12;64.57;;;42.30;;
11414;SDS011;5763;42.714;23.244;2023-01-01T07:03:40;63.33;;;42.85;;
11414;SDS011;5763;42.714;23.244;2023-01-01T07:06:08;64.55;;;42.63;;
11414;SDS011;5763;42.714;23.244;2023-01-01T07:08:35;64.70;;;41.63;;
11414;SDS011;5763;42.714;23.244;2023-01-01T07:11:03;61.08;;;40.75;;
11414;SDS011;5763;42.714;23.244;2023-01-01T07:13:30;60.05;;;38.88;;
11414;SDS011;5763;42.714;23.244;2023-01-01T07:15:57;57.08;;;37.90;;
11414;SDS011;5763;42.714;23.244;2023-01-01T07:18:24;51.38;;;34.10;;
11414;SDS011;5763;42.714;23.244;2023-01-01T07:20:52;43.13;;;29.83;;
11414;SDS011;5763;42.714;23.244;2023-01-01T07:23:21;44.92;;;30.15;;
11414;SDS011;5763;42.714;23.244;2023-01-01T07:25:48;45.47;;;30.85;;
11414;SDS011;5763;42.714;23.244;2023-01-01T07:28:17;43.60;;;29.63;;
11414;SDS011;5763;42.714;23.244;2023-01-01T07:30:44;43.60;;;29.27;;
11414;SDS011;5763;42.714;23.244;2023-01-01T07:33:12;44.50;;;28.90;;
11414;SDS011;5763;42.714;23.244;2023-01-01T07:35:39;42.72;;;30.45;;
11414;SDS011;5763;42.714;23.244;2023-01-01T07:38:08;42.05;;;29.60;;
11414;SDS011;5763;42.714;23.244;2023-01-01T07:40:35;42.70;;;28.95;;
11414;SDS011;5763;42.714;23.244;2023-01-01T07:43:02;43.00;;;29.63;;
11414;SDS011;5763;42.714;23.244;2023-01-01T07:45:30;47.63;;;34.78;;
11414;SDS011;5763;42.714;23.244;2023-01-01T07:47:58;51.40;;;35.17;;
11414;SDS011;5763;42.714;23.244;2023-01-01T07:50:27;55.50;;;37.88;;
11414;SDS011;5763;42.714;23.244;2023-01-01T07:52:55;62.33;;;41.67;;
11414;SDS011;5763;42.714;23.244;2023-01-01T07:55:22;65.85;;;46.75;;
11414;SDS011;5763;42.714;23.244;2023-01-01T07:57:49;76.47;;;51.13;;
11414;SDS011;5763;42.714;23.244;2023-01-01T08:00:16;80.63;;;55.35;;
11414;SDS011;5763;42.714;23.244;2023-01-01T08:02:46;82.65;;;55.95;;
11414;SDS011;5763;42.714;23.244;2023-01-01T08:05:13;76.15;;;56.42;;
11414;SDS011;5763;42.714;23.244;2023-01-01T08:07:39;86.32;;;58.30;;
11414;SDS011;5763;42.714;23.244;2023-01-01T08:10:11;81.95;;;57.75;;
11414;SDS011;5763;42.714;23.244;2023-01-01T08:12:38;82.05;;;58.92;;
11414;SDS011;5763;42.714;23.244;2023-01-01T08:15:05;87.53;;;60.28;;
11414;SDS011;5763;42.714;23.244;2023-01-01T08:17:33;88.43;;;60.67;;
11414;SDS011;5763;42.714;23.244;2023-01-01T08:20:01;93.55;;;62.13;;
11414;SDS011;5763;42.714;23.244;2023-01-01T08:22:28;84.45;;;61.58;;
11414;SDS011;5763;42.714;23.244;2023-01-01T08:24:54;93.25;;;62.67;;
11414;SDS011;5763;42.714;23.244;2023-01-01T08:27:21;89.10;;;62.38;;
11414;SDS011;5763;42.714;23.244;2023-01-01T08:29:48;94.90;;;63.78;;
11414;SDS011;5763;42.714;23.244;2023-01-01T08:32:15;90.28;;;61.72;;
11414;SDS011;5763;42.714;23.244;2023-01-01T08:34:42;88.45;;;62.83;;
11414;SDS011;5763;42.714;23.244;2023-01-01T08:37:11;91.85;;;63.13;;
11414;SDS011;5763;42.714;23.244;2023-01-01T08:39:39;81.60;;;57.90;;
11414;SDS011;5763;42.714;23.244;2023-01-01T08:42:05;73.93;;;52.47;;
11414;SDS011;5763;42.714;23.244;2023-01-01T08:44:33;75.53;;;54.08;;
11414;SDS011;5763;42.714;23.244;2023-01-01T08:46:59;66.15;;;47.45;;
11414;SDS011;5763;42.714;23.244;2023-01-01T08:49:26;64.55;;;45.45;;
11414;SDS011;5763;42.714;23.244;2023-01-01T08:51:53;64.63;;;45.33;;
11414;SDS011;5763;42.714;23.244;2023-01-01T08:54:21;63.08;;;44.38;;
11414;SDS011;5763;42.714;23.244;2023-01-01T08:56:48;64.03;;;43.00;;
11414;SDS011;5763;42.714;23.244;2023-01-01T08:59:15;53.95;;;39.72;;
11414;SDS011;5763;42.714;23.244;2023-01-01T09:01:41;55.47;;;39.25;;
11414;SDS011;5763;42.714;23.244;2023-01-01T09:04:08;54.20;;;39.55;;
11414;SDS011;5763;42.714;23.244;2023-01-01T09:06:37;53.95;;;39.25;;
11414;SDS011;5763;42.714;23.244;2023-01-01T09:09:03;56.83;;;40.80;;
11414;SDS011;5763;42.714;23.244;2023-01-01T09:11:31;54.67;;;40.45;;
11414;SDS011;5763;42.714;23.244;2023-01-01T09:13:58;58.13;;;39.45;;
11414;SDS011;5763;42.714;23.244;2023-01-01T09:16:25;55.47;;;38.13;;
11414;SDS011;5763;42.714;23.244;2023-01-01T09:18:51;52.05;;;37.72;;
11414;SDS011;5763;42.714;23.244;2023-01-01T09:21:18;48.20;;;35.83;;
11414;SDS011;5763;42.714;23.244;2023-01-01T09:23:45;48.20;;;35.58;;
11414;SDS011;5763;42.714;23.244;2023-01-01T09:26:12;51.00;;;36.33;;
11414;SDS011;5763;42.714;23.244;2023-01-01T09:28:40;53.13;;;35.25;;
11414;SDS011;5763;42.714;23.244;2023-01-01T09:31:07;51.30;;;36.60;;
11414;SDS011;5763;42.714;23.244;2023-01-01T09:33:33;52.72;;;37.58;;
11414;SDS011;5763;42.714;23.244;2023-01-01T09:36:13;52.08;;;39.40;;
11414;SDS011;5763;42.714;23.244;2023-01-01T09:38:51;55.20;;;39.25;;
11414;SDS011;5763;42.714;23.244;2023-01-01T09:41:20;51.75;;;38.00;;
11414;SDS011;5763;42.714;23.244;2023-01-01T09:44:00;53.65;;;39.42;;
11414;SDS011;5763;42.714;23.244;2023-01-01T09:46:34;49.03;;;37.40;;
11414;SDS011;5763;42.714;23.244;2023-01-01T09:49:03;53.10;;;39.15;;
11414;SDS011;5763;42.714;23.244;2023-01-01T09:51:37;51.78;;;38.45;;
11414;SDS011;5763;42.714;23.244;2023-01-01T09:54:09;48.53;;;35.17;;
11414;SDS011;5763;42.714;23.244;2023-01-01T09:56:40;51.47;;;36.28;;
11414;SDS011;5763;42.714;23.244;2023-01-01T09:59:12;48.35;;;34.13;;
11414;SDS011;5763;42.714;23.244;2023-01-01T10:01:41;45.08;;;34.83;;
11414;SDS011;5763;42.714;23.244;2023-01-01T10:04:27;43.53;;;32.75;;
11414;SDS011;5763;42.714;23.244;2023-01-01T10:07:08;45.00;;;32.83;;
11414;SDS011;5763;42.714;23.244;2023-01-01T10:09:41;45.28;;;34.85;;
11414;SDS011;5763;42.714;23.244;2023-01-01T10:12:16;45.38;;;34.20;;
11414;SDS011;5763;42.714;23.244;2023-01-01T10:14:53;48.55;;;35.92;;
11414;SDS011;5763;42.714;23.244;2023-01-01T10:17:26;47.78;;;36.33;;
11414;SDS011;5763;42.714;23.244;2023-01-01T10:19:59;43.55;;;35.20;;
11414;SDS011;5763;42.714;23.244;2023-01-01T10:22:31;45.17;;;36.13;;
11414;SDS011;5763;42.714;23.244;2023-01-01T10:25:02;45.08;;;34.53;;
11414;SDS011;5763;42.714;23.244;2023-01-01T10:27:34;41.97;;;34.75;;
11414;SDS011;5763;42.714;23.244;2023-01-01T10:30:08;43.78;;;33.47;;
11414;SDS011;5763;42.714;23.244;2023-01-01T10:32:40;47.55;;;34.40;;
11414;SDS011;5763;42.714;23.244;2023-01-01T10:35:11;42.70;;;34.08;;
11414;SDS011;5763;42.714;23.244;2023-01-01T10:37:39;43.65;;;33.45;;
11414;SDS011;5763;42.714;23.244;2023-01-01T10:40:12;45.17;;;34.58;;
11414;SDS011;5763;42.714;23.244;2023-01-01T10:42:42;46.85;;;35.85;;
11414;SDS011;5763;42.714;23.244;2023-01-01T10:45:14;43.90;;;35.97;;
11414;SDS011;5763;42.714;23.244;2023-01-01T10:50:41;46.17;;;36.67;;
11414;SDS011;5763;42.714;23.244;2023-01-01T10:53:26;42.60;;;34.30;;
11414;SDS011;5763;42.714;23.244;2023-01-01T10:55:59;42.40;;;34.88;;
11414;SDS011;5763;42.714;23.244;2023-01-01T10:58:38;42.40;;;34.65;;
11414;SDS011;5763;42.714;23.244;2023-01-01T11:01:11;41.70;;;32.42;;
11414;SDS011;5763;42.714;23.244;2023-01-01T11:03:54;39.67;;;32.40;;
11414;SDS011;5763;42.714;23.244;2023-01-01T11:06:23;41.03;;;34.17;;
11414;SDS011;5763;42.714;23.244;2023-01-01T11:08:52;40.20;;;33.65;;
11414;SDS011;5763;42.714;23.244;2023-01-01T11:11:24;40.78;;;33.65;;
11414;SDS011;5763;42.714;23.244;2023-01-01T11:13:54;42.30;;;34.25;;
11414;SDS011;5763;42.714;23.244;2023-01-01T11:16:24;44.60;;;34.92;;
11414;SDS011;5763;42.714;23.244;2023-01-01T11:18:52;44.83;;;35.13;;
11414;SDS011;5763;42.714;23.244;2023-01-01T11:21:27;43.45;;;36.78;;
11414;SDS011;5763;42.714;23.244;2023-01-01T11:24:07;45.75;;;35.92;;
11414;SDS011;5763;42.714;23.244;2023-01-01T11:26:41;43.15;;;37.63;;
11414;SDS011;5763;42.714;23.244;2023-01-01T11:29:16;46.53;;;36.95;;
11414;SDS011;5763;42.714;23.244;2023-01-01T11:31:48;45.80;;;38.00;;
11414;SDS011;5763;42.714;23.244;2023-01-01T11:34:21;48.90;;;37.05;;
11414;SDS011;5763;42.714;23.244;2023-01-01T11:37:04;40.67;;;35.85;;
11414;SDS011;5763;42.714;23.244;2023-01-01T11:39:33;45.75;;;37.75;;
11414;SDS011;5763;42.714;23.244;2023-01-01T11:42:01;48.15;;;39.15;;
11414;SDS011;5763;42.714;23.244;2023-01-01T11:44:33;43.65;;;37.58;;
11414;SDS011;5763;42.714;23.244;2023-01-01T11:47:04;45.95;;;38.33;;
11414;SDS011;5763;42.714;23.244;2023-01-01T11:49:33;50.65;;;41.40;;
11414;SDS011;5763;42.714;23.244;2023-01-01T11:52:00;54.65;;;43.63;;
11414;SDS011;5763;42.714;23.244;2023-01-01T11:55:00;51.63;;;45.28;;
11414;SDS011;5763;42.714;23.244;2023-01-01T11:57:35;54.85;;;46.50;;
11414;SDS011;5763;42.714;23.244;2023-01-01T12:00:04;51.22;;;45.53;;
11414;SDS011;5763;42.714;23.244;2023-01-01T12:02:35;51.67;;;45.50;;
11414;SDS011;5763;42.714;23.244;2023-01-01T12:05:08;54.22;;;47.42;;
11414;SDS011;5763;42.714;23.244;2023-01-01T12:07:42;58.03;;;51.03;;
11414;SDS011;5763;42.714;23.244;2023-01-01T12:10:13;56.63;;;49.92;;
11414;SDS011;5763;42.714;23.244;2023-01-01T12:12:47;58.38;;;51.58;;
11414;SDS011;5763;42.714;23.244;2023-01-01T12:15:19;56.03;;;49.92;;
11414;SDS011;5763;42.714;23.244;2023-01-01T12:17:57;56.00;;;49.65;;
11414;SDS011;5763;42.714;23.244;2023-01-01T12:20:29;57.65;;;51.05;;
11414;SDS011;5763;42.714;23.244;2023-01-01T12:22:58;62.97;;;56.00;;
11414;SDS011;5763;42.714;23.244;2023-01-01T12:25:28;63.25;;;56.58;;
11414;SDS011;5763;42.714;23.244;2023-01-01T12:28:02;64.75;;;56.20;;
11414;SDS011;5763;42.714;23.244;2023-01-01T12:30:42;64.38;;;57.42;;
11414;SDS011;5763;42.714;23.244;2023-01-01T12:33:20;61.47;;;54.55;;
11414;SDS011;5763;42.714;23.244;2023-01-01T12:39:19;58.03;;;51.67;;
11414;SDS011;5763;42.714;23.244;2023-01-01T12:42:11;58.78;;;52.40;;
11414;SDS011;5763;42.714;23.244;2023-01-01T12:44:47;55.90;;;50.13;;
11414;SDS011;5763;42.714;23.244;2023-01-01T12:47:28;54.35;;;48.47;;
11414;SDS011;5763;42.714;23.244;2023-01-01T12:50:08;56.42;;;50.28;;
11414;SDS011;5763;42.714;23.244;2023-01-01T12:52:49;55.45;;;49.55;;
11414;SDS011;5763;42.714;23.244;2023-01-01T12:55:35;55.20;;;49.25;;
11414;SDS011;5763;42.714;23.244;2023-01-01T12:58:29;54.63;;;48.67;;
11414;SDS011;5763;42.714;23.244;2023-01-01T13:00:59;51.55;;;46.25;;
11414;SDS011;5763;42.714;23.244;2023-01-01T13:03:31;53.15;;;47.35;;
11414;SDS011;5763;42.714;23.244;2023-01-01T13:06:04;52.88;;;46.92;;
11414;SDS011;5763;42.714;23.244;2023-01-01T13:08:33;52.50;;;46.88;;
11414;SDS011;5763;42.714;23.244;2023-01-01T13:11:01;51.33;;;45.90;;
11414;SDS011;5763;42.714;23.244;2023-01-01T13:13:30;52.90;;;47.33;;
11414;SDS011;5763;42.714;23.244;2023-01-01T13:15:57;51.38;;;45.55;;
11414;SDS011;5763;42.714;23.244;2023-01-01T13:18:25;52.35;;;46.63;;
11414;SDS011;5763;42.714;23.244;2023-01-01T13:20:58;51.65;;;45.70;;
11414;SDS011;5763;42.714;23.244;2023-01-01T13:26:32;56.03;;;46.67;;
11414;SDS011;5763;42.714;23.244;2023-01-01T13:31:58;54.20;;;46.63;;
11414;SDS011;5763;42.714;23.244;2023-01-01T13:34:33;59.55;;;45.33;;
11414;SDS011;5763;42.714;23.244;2023-01-01T13:39:55;53.42;;;43.85;;
11414;SDS011;5763;42.714;23.244;2023-01-01T13:42:36;53.45;;;44.25;;
11414;SDS011;5763;42.714;23.244;2023-01-01T13:45:10;50.97;;;43.78;;
11414;SDS011;5763;42.714;23.244;2023-01-01T13:47:44;53.35;;;44.42;;
11414;SDS011;5763;42.714;23.244;2023-01-01T13:50:27;51.05;;;42.15;;
11414;SDS011;5763;42.714;23.244;2023-01-01T13:53:06;54.35;;;42.97;;
11414;SDS011;5763;42.714;23.244;2023-01-01T13:55:51;50.20;;;41.60;;
11414;SDS011;5763;42.714;23.244;2023-01-01T13:58:40;53.58;;;40.97;;
11414;SDS011;5763;42.714;23.244;2023-01-01T14:04:28;51.90;;;41.70;;
11414;SDS011;5763;42.714;23.244;2023-01-01T14:07:03;50.40;;;40.38;;
11414;SDS011;5763;42.714;23.244;2023-01-01T14:09:37;51.75;;;41.92;;
11414;SDS011;5763;42.714;23.244;2023-01-01T14:12:09;53.05;;;41.10;;
11414;SDS011;5763;42.714;23.244;2023-01-01T14:14:42;53.28;;;40.72;;
11414;SDS011;5763;42.714;23.244;2023-01-01T14:17:10;51.42;;;40.55;;
11414;SDS011;5763;42.714;23.244;2023-01-01T14:19:39;49.65;;;38.17;;
11414;SDS011;5763;42.714;23.244;2023-01-01T14:22:07;50.08;;;39.17;;
11414;SDS011;5763;42.714;23.244;2023-01-01T14:24:36;47.53;;;38.08;;
11414;SDS011;5763;42.714;23.244;2023-01-01T14:27:08;48.33;;;38.63;;
11414;SDS011;5763;42.714;23.244;2023-01-01T14:29:41;48.22;;;38.42;;
11414;SDS011;5763;42.714;23.244;2023-01-01T14:32:14;47.20;;;37.40;;
11414;SDS011;5763;42.714;23.244;2023-01-01T14:34:46;48.50;;;37.17;;
11414;SDS011;5763;42.714;23.244;2023-01-01T14:37:23;48.03;;;38.00;;
11414;SDS011;5763;42.714;23.244;2023-01-01T14:40:03;45.88;;;36.17;;
11414;SDS011;5763;42.714;23.244;2023-01-01T14:42:33;46.00;;;35.20;;
11414;SDS011;5763;42.714;23.244;2023-01-01T14:45:01;49.08;;;37.58;;
11414;SDS011;5763;42.714;23.244;2023-01-01T14:47:29;51.83;;;37.53;;
11414;SDS011;5763;42.714;23.244;2023-01-01T14:49:59;49.08;;;35.88;;
11414;SDS011;5763;42.714;23.244;2023-01-01T14:52:30;50.45;;;35.58;;
11414;SDS011;5763;42.714;23.244;2023-01-01T14:54:59;46.45;;;34.95;;
11414;SDS011;5763;42.714;23.244;2023-01-01T14:57:30;49.78;;;35.92;;
11414;SDS011;5763;42.714;23.244;2023-01-01T14:59:59;50.67;;;36.20;;